Time;durP1;ratioP1;P1;durP2;ratioP2;P2;SDS_P1;SDS_P2;PMS_P1;PMS_P2;Temp;Humidity;BMP_temperature;BMP_pressure;BME280_temperature;BME280_humidity;BME280_pressure;Samples;Min_cycle;Max_cycle;Signal;HPM_P1;HPM_P2
2021/05/09 00:00:39;;;;;;;3.30;2.97;;;;;;;;;;5052527;28;20412;-53
2021/05/09 00:03:05;;;;;;;2.90;2.70;;;;;;;;;;5052487;28;20880;-52
2021/05/09 00:05:31;;;;;;;3.57;2.57;;;;;;;;;;5052627;28;20432;-52
2021/05/09 00:07:57;;;;;;;2.80;2.60;;;;;;;;;;5051714;28;20405;-52
2021/05/09 00:10:23;;;;;;;3.00;2.63;;;;;;;;;;5052401;28;20939;-52
2021/05/09 00:12:49;;;;;;;3.30;2.67;;;;;;;;;;5052252;28;20811;-52
2021/05/09 00:15:18;;;;;;;2.70;2.50;;;;;;;;;;5052189;28;20404;-53
2021/05/09 00:17:44;;;;;;;2.60;2.50;;;;;;;;;;5052334;28;20420;-53
2021/05/09 00:20:10;;;;;;;2.70;2.20;;;;;;;;;;5052277;28;20412;-52
2021/05/09 00:22:36;;;;;;;2.63;2.43;;;;;;;;;;5052170;28;20415;-52
2021/05/09 00:25:03;;;;;;;2.53;2.33;;;;;;;;;;5052401;28;20500;-51
2021/05/09 00:27:29;;;;;;;7.73;2.80;;;;;;;;;;5052101;28;20432;-52
2021/05/09 00:29:55;;;;;;;4.20;2.63;;;;;;;;;;5051896;28;20816;-54
2021/05/09 00:32:21;;;;;;;2.43;2.23;;;;;;;;;;5051965;28;20736;-53
2021/05/09 00:34:47;;;;;;;2.70;2.50;;;;;;;;;;5052436;28;20814;-52
2021/05/09 00:37:13;;;;;;;2.90;2.70;;;;;;;;;;5052258;28;20413;-52
2021/05/09 00:39:39;;;;;;;4.30;2.97;;;;;;;;;;5052447;28;20409;-52
2021/05/09 00:42:06;;;;;;;2.53;2.33;;;;;;;;;;5051983;28;20371;-52
2021/05/09 00:44:32;;;;;;;2.60;2.40;;;;;;;;;;5052039;28;20410;-54
2021/05/09 00:46:59;;;;;;;4.17;2.87;;;;;;;;;;5051783;28;20477;-53
2021/05/09 00:49:25;;;;;;;5.43;3.27;;;;;;;;;;5051816;28;20453;-52
2021/05/09 00:51:51;;;;;;;2.70;2.50;;;;;;;;;;5051583;28;20438;-52
2021/05/09 00:54:19;;;;;;;3.50;3.07;;;;;;;;;;5051761;28;20446;-52
2021/05/09 00:56:47;;;;;;;3.10;2.80;;;;;;;;;;5052124;28;20424;-52
2021/05/09 00:59:13;;;;;;;4.10;2.80;;;;;;;;;;5051607;28;20405;-52
2021/05/09 01:01:41;;;;;;;2.40;2.30;;;;;;;;;;5051035;28;20892;-52
2021/05/09 01:04:08;;;;;;;10.90;3.10;;;;;;;;;;5050393;28;20433;-52
2021/05/09 01:06:34;;;;;;;2.80;2.60;;;;;;;;;;5051231;28;20912;-53
2021/05/09 01:09:01;;;;;;;5.43;2.83;;;;;;;;;;5051285;28;20376;-53
2021/05/09 01:11:27;;;;;;;2.80;2.70;;;;;;;;;;5051130;28;20407;-53
2021/05/09 01:13:53;;;;;;;2.60;2.40;;;;;;;;;;5051250;28;20401;-53
2021/05/09 01:16:19;;;;;;;2.60;2.40;;;;;;;;;;5051313;28;20432;-53
2021/05/09 01:18:45;;;;;;;2.70;2.50;;;;;;;;;;5051073;28;20495;-52
2021/05/09 01:21:11;;;;;;;3.63;2.73;;;;;;;;;;5051222;28;20404;-53
2021/05/09 01:23:37;;;;;;;2.30;2.20;;;;;;;;;;5050948;28;20494;-53
2021/05/09 01:26:03;;;;;;;3.70;2.47;;;;;;;;;;5050999;28;20412;-54
2021/05/09 01:28:29;;;;;;;3.00;2.80;;;;;;;;;;5051008;28;20411;-54
2021/05/09 01:30:55;;;;;;;2.60;2.47;;;;;;;;;;5050953;28;20947;-52
2021/05/09 01:33:21;;;;;;;7.33;2.70;;;;;;;;;;5050794;28;20398;-53
2021/05/09 01:35:47;;;;;;;2.53;2.33;;;;;;;;;;5050942;28;20432;-52
2021/05/09 01:38:13;;;;;;;3.40;3.10;;;;;;;;;;5050902;28;20396;-53
2021/05/09 01:40:39;;;;;;;2.40;2.30;;;;;;;;;;5050785;28;20376;-53
2021/05/09 01:43:05;;;;;;;3.30;3.10;;;;;;;;;;5050578;28;20755;-54
2021/05/09 01:45:31;;;;;;;2.60;2.40;;;;;;;;;;5050726;28;20424;-52
2021/05/09 01:47:57;;;;;;;2.63;2.43;;;;;;;;;;5051382;28;20405;-52
2021/05/09 01:50:23;;;;;;;2.60;2.40;;;;;;;;;;5050590;28;20463;-52
2021/05/09 01:52:49;;;;;;;2.80;2.60;;;;;;;;;;5050615;28;20386;-52
2021/05/09 01:55:19;;;;;;;6.80;2.80;;;;;;;;;;5050476;28;20411;-53
2021/05/09 01:57:46;;;;;;;4.10;2.57;;;;;;;;;;5050858;28;20401;-52
2021/05/09 02:00:16;;;;;;;2.47;2.37;;;;;;;;;;5050524;28;20407;-53
2021/05/09 02:02:42;;;;;;;3.00;2.80;;;;;;;;;;5050714;28;20428;-52
2021/05/09 02:05:09;;;;;;;2.70;2.43;;;;;;;;;;5050577;28;20798;-52
2021/05/09 02:07:35;;;;;;;2.57;2.37;;;;;;;;;;5050597;28;20412;-52
2021/05/09 02:10:01;;;;;;;2.40;2.23;;;;;;;;;;5050277;28;20568;-52
2021/05/09 02:12:27;;;;;;;3.23;2.93;;;;;;;;;;5050349;28;20396;-53
2021/05/09 02:14:53;;;;;;;3.13;2.83;;;;;;;;;;5050517;28;20412;-52
2021/05/09 02:17:20;;;;;;;2.90;2.50;;;;;;;;;;5050465;28;20427;-53
2021/05/09 02:19:47;;;;;;;3.33;3.03;;;;;;;;;;5050302;28;20417;-53
2021/05/09 02:22:12;;;;;;;2.83;2.10;;;;;;;;;;5050238;28;20402;-52
2021/05/09 02:24:38;;;;;;;4.53;2.67;;;;;;;;;;5050242;28;20397;-52
2021/05/09 02:27:04;;;;;;;3.60;2.87;;;;;;;;;;5050517;28;20446;-54
2021/05/09 02:29:30;;;;;;;5.53;2.63;;;;;;;;;;5050174;28;20479;-52
2021/05/09 02:31:56;;;;;;;3.83;2.70;;;;;;;;;;5053980;28;20412;-54
2021/05/09 02:34:22;;;;;;;3.63;2.30;;;;;;;;;;5054335;28;20383;-53
2021/05/09 02:36:49;;;;;;;3.07;2.80;;;;;;;;;;5054175;28;20429;-53
2021/05/09 02:39:15;;;;;;;2.80;2.53;;;;;;;;;;5054283;28;20409;-52
2021/05/09 02:41:41;;;;;;;4.37;2.60;;;;;;;;;;5054179;28;20415;-52
2021/05/09 02:44:08;;;;;;;2.53;2.33;;;;;;;;;;5054321;28;20383;-52
2021/05/09 02:46:34;;;;;;;2.80;2.60;;;;;;;;;;5054011;28;20445;-51
2021/05/09 02:49:00;;;;;;;5.13;2.57;;;;;;;;;;5053932;28;20765;-52
2021/05/09 02:51:26;;;;;;;2.93;2.63;;;;;;;;;;5053992;28;20488;-52
2021/05/09 02:53:52;;;;;;;2.80;2.60;;;;;;;;;;5053935;28;20933;-51
2021/05/09 02:56:18;;;;;;;2.70;2.50;;;;;;;;;;5053990;28;20420;-52
2021/05/09 02:58:44;;;;;;;2.37;2.27;;;;;;;;;;5053950;28;20372;-52
2021/05/09 03:01:10;;;;;;;4.13;3.10;;;;;;;;;;5054146;28;20412;-52
2021/05/09 03:03:36;;;;;;;3.73;2.80;;;;;;;;;;5053853;28;20407;-52
2021/05/09 03:06:02;;;;;;;2.83;2.50;;;;;;;;;;5053745;28;20411;-52
2021/05/09 03:08:28;;;;;;;2.77;2.50;;;;;;;;;;5053813;28;20496;-52
2021/05/09 03:10:54;;;;;;;2.60;2.40;;;;;;;;;;5053432;28;20452;-52
2021/05/09 03:13:20;;;;;;;3.00;2.70;;;;;;;;;;5053468;28;20397;-52
2021/05/09 03:15:46;;;;;;;2.60;2.43;;;;;;;;;;5053444;28;20417;-52
2021/05/09 03:18:12;;;;;;;2.50;2.30;;;;;;;;;;5053568;28;20432;-52
2021/05/09 03:20:38;;;;;;;2.47;2.37;;;;;;;;;;5053338;28;20401;-52
2021/05/09 03:23:05;;;;;;;2.40;2.20;;;;;;;;;;5053276;28;20401;-52
2021/05/09 03:25:31;;;;;;;2.73;2.53;;;;;;;;;;5053555;28;20503;-52
2021/05/09 03:27:57;;;;;;;3.73;2.47;;;;;;;;;;5053555;28;20405;-52
2021/05/09 03:30:23;;;;;;;3.30;2.77;;;;;;;;;;5053081;28;20460;-52
2021/05/09 03:32:49;;;;;;;2.70;2.50;;;;;;;;;;5053074;28;20902;-52
2021/05/09 03:35:15;;;;;;;3.10;2.43;;;;;;;;;;5053017;28;20401;-52
2021/05/09 03:37:41;;;;;;;3.63;2.20;;;;;;;;;;5053219;28;20368;-52
2021/05/09 03:40:08;;;;;;;2.63;2.53;;;;;;;;;;5053188;28;20401;-52
2021/05/09 03:42:34;;;;;;;3.90;2.23;;;;;;;;;;5051682;28;20416;-52
2021/05/09 03:45:01;;;;;;;2.50;2.30;;;;;;;;;;5053089;28;20405;-52
2021/05/09 03:47:27;;;;;;;2.63;2.53;;;;;;;;;;5067095;22;20524;-52
2021/05/09 03:49:54;;;;;;;2.67;2.47;;;;;;;;;;5052531;28;20445;-52
2021/05/09 03:52:20;;;;;;;4.93;2.60;;;;;;;;;;5052999;28;20398;-52
2021/05/09 03:54:46;;;;;;;4.57;2.67;;;;;;;;;;5052753;28;20401;-52
2021/05/09 03:57:12;;;;;;;3.63;2.37;;;;;;;;;;5052777;28;20424;-52
2021/05/09 03:59:38;;;;;;;2.70;2.30;;;;;;;;;;5052555;28;20411;-54
2021/05/09 04:02:04;;;;;;;2.90;2.17;;;;;;;;;;5052478;28;20403;-53
2021/05/09 04:04:30;;;;;;;2.70;2.50;;;;;;;;;;5052577;28;20401;-55
2021/05/09 04:06:56;;;;;;;4.17;2.90;;;;;;;;;;5052565;28;20433;-55
2021/05/09 04:09:22;;;;;;;3.00;2.60;;;;;;;;;;5052372;28;20497;-52
2021/05/09 04:11:48;;;;;;;5.63;3.07;;;;;;;;;;5050944;28;20411;-52
2021/05/09 04:14:14;;;;;;;3.43;3.23;;;;;;;;;;5052553;28;20397;-53
2021/05/09 04:16:40;;;;;;;7.00;3.00;;;;;;;;;;5052346;28;20980;-53
2021/05/09 04:19:06;;;;;;;2.60;2.40;;;;;;;;;;5052231;28;20408;-55
2021/05/09 04:21:32;;;;;;;3.30;2.73;;;;;;;;;;5052097;28;20405;-52
2021/05/09 04:23:58;;;;;;;3.20;2.70;;;;;;;;;;5052310;28;20401;-52
2021/05/09 04:26:24;;;;;;;3.23;2.57;;;;;;;;;;5052124;28;20838;-52
2021/05/09 04:28:50;;;;;;;3.90;3.10;;;;;;;;;;5050907;28;20499;-52
2021/05/09 04:31:16;;;;;;;2.87;2.67;;;;;;;;;;5051792;28;20453;-52
2021/05/09 04:33:42;;;;;;;2.97;2.77;;;;;;;;;;5051907;28;20884;-52
2021/05/09 04:36:08;;;;;;;2.33;2.13;;;;;;;;;;5050763;28;20433;-52
2021/05/09 04:38:34;;;;;;;3.10;2.30;;;;;;;;;;5051931;28;20404;-52
2021/05/09 04:41:00;;;;;;;2.33;2.13;;;;;;;;;;5052350;28;20434;-52
2021/05/09 04:43:26;;;;;;;2.50;2.30;;;;;;;;;;5051934;28;20438;-52
2021/05/09 04:45:53;;;;;;;2.43;2.23;;;;;;;;;;5051620;28;20885;-52
2021/05/09 04:48:19;;;;;;;3.77;3.47;;;;;;;;;;5051853;28;20409;-52
2021/05/09 04:50:45;;;;;;;2.17;2.03;;;;;;;;;;5051546;28;20486;-52
2021/05/09 04:53:23;;;;;;;2.80;2.60;;;;;;;;;;5051309;28;20412;-52
2021/05/09 04:55:51;;;;;;;3.00;2.30;;;;;;;;;;5052060;28;20406;-52
2021/05/09 04:58:17;;;;;;;2.50;2.30;;;;;;;;;;5051696;28;20408;-52
2021/05/09 05:00:43;;;;;;;4.93;2.50;;;;;;;;;;5051352;28;20467;-52
2021/05/09 05:03:09;;;;;;;2.20;2.10;;;;;;;;;;5051338;28;20448;-52
2021/05/09 05:05:35;;;;;;;2.30;2.00;;;;;;;;;;5051589;28;20916;-52
2021/05/09 05:08:01;;;;;;;3.20;2.60;;;;;;;;;;5051314;28;20432;-52
2021/05/09 05:10:27;;;;;;;2.23;2.13;;;;;;;;;;5051239;28;20463;-52
2021/05/09 05:12:53;;;;;;;3.60;2.50;;;;;;;;;;5051170;28;20440;-52
2021/05/09 05:15:19;;;;;;;2.20;2.10;;;;;;;;;;5051122;28;20459;-53
2021/05/09 05:17:45;;;;;;;3.27;2.40;;;;;;;;;;5051413;28;20766;-52
2021/05/09 05:20:11;;;;;;;3.97;2.63;;;;;;;;;;5051184;28;20478;-52
2021/05/09 05:22:37;;;;;;;4.10;2.43;;;;;;;;;;5050818;28;20455;-52
2021/05/09 05:25:04;;;;;;;2.63;2.03;;;;;;;;;;5051147;28;20405;-52
2021/05/09 05:27:30;;;;;;;2.43;2.33;;;;;;;;;;5050998;28;20460;-52
2021/05/09 05:29:56;;;;;;;2.40;2.30;;;;;;;;;;5050853;28;20460;-52
2021/05/09 05:32:22;;;;;;;2.50;2.13;;;;;;;;;;5050756;28;20376;-52
2021/05/09 05:34:47;;;;;;;2.20;2.10;;;;;;;;;;5050930;28;20388;-52
2021/05/09 05:37:13;;;;;;;2.00;1.90;;;;;;;;;;5050881;28;20797;-53
2021/05/09 05:39:39;;;;;;;2.50;2.40;;;;;;;;;;5050985;28;20746;-54
2021/05/09 05:42:05;;;;;;;2.20;2.00;;;;;;;;;;5050632;28;20866;-52
2021/05/09 05:44:31;;;;;;;3.40;2.40;;;;;;;;;;5050769;28;20413;-52
2021/05/09 05:46:57;;;;;;;2.37;2.17;;;;;;;;;;5050568;28;20427;-52
2021/05/09 05:49:23;;;;;;;6.60;3.30;;;;;;;;;;5050593;28;20530;-53
2021/05/09 05:51:49;;;;;;;3.57;2.50;;;;;;;;;;5049114;28;20420;-52
2021/05/09 05:54:15;;;;;;;4.63;2.53;;;;;;;;;;5050682;28;20993;-53
2021/05/09 05:56:41;;;;;;;3.80;2.37;;;;;;;;;;5050531;28;20486;-53
2021/05/09 05:59:07;;;;;;;2.87;2.67;;;;;;;;;;5050464;28;20372;-54
2021/05/09 06:01:33;;;;;;;1.90;1.80;;;;;;;;;;5050382;28;20411;-53
2021/05/09 06:03:59;;;;;;;2.80;2.60;;;;;;;;;;5050624;28;20411;-52
2021/05/09 06:06:25;;;;;;;4.13;2.00;;;;;;;;;;5049705;28;20462;-53
2021/05/09 06:08:53;;;;;;;5.20;2.60;;;;;;;;;;5050457;28;20437;-52
2021/05/09 06:11:19;;;;;;;2.47;2.27;;;;;;;;;;5050328;28;20460;-52
2021/05/09 06:13:44;;;;;;;2.00;1.90;;;;;;;;;;5050415;28;20412;-52
2021/05/09 06:16:10;;;;;;;2.20;2.00;;;;;;;;;;5050391;28;20413;-52
2021/05/09 06:18:37;;;;;;;5.20;2.30;;;;;;;;;;5050579;28;20397;-52
2021/05/09 06:21:03;;;;;;;2.40;2.20;;;;;;;;;;5050731;28;20406;-52
2021/05/09 06:23:29;;;;;;;2.00;1.80;;;;;;;;;;5050309;28;20873;-52
2021/05/09 06:25:55;;;;;;;3.43;1.90;;;;;;;;;;5050538;28;20409;-52
2021/05/09 06:28:21;;;;;;;2.37;1.90;;;;;;;;;;5050551;28;20405;-52
2021/05/09 06:30:48;;;;;;;2.20;2.00;;;;;;;;;;5050624;28;20804;-52
2021/05/09 06:33:14;;;;;;;3.30;1.90;;;;;;;;;;5050547;28;20422;-52
2021/05/09 06:35:41;;;;;;;2.60;2.40;;;;;;;;;;5050481;28;20448;-54
2021/05/09 06:38:07;;;;;;;1.73;1.63;;;;;;;;;;5050373;28;20921;-52
2021/05/09 06:40:37;;;;;;;1.80;1.70;;;;;;;;;;5050324;28;20412;-52
2021/05/09 06:43:03;;;;;;;2.63;1.80;;;;;;;;;;5049845;28;20405;-53
2021/05/09 06:45:30;;;;;;;2.40;2.23;;;;;;;;;;5050256;28;20402;-52
2021/05/09 06:47:57;;;;;;;2.00;1.90;;;;;;;;;;5050020;28;20494;-54
2021/05/09 06:50:23;;;;;;;2.27;1.97;;;;;;;;;;5050000;28;20449;-52
2021/05/09 06:52:49;;;;;;;3.00;2.20;;;;;;;;;;5050068;28;20397;-52
2021/05/09 06:55:15;;;;;;;2.00;1.60;;;;;;;;;;5050308;28;20424;-52
2021/05/09 06:57:42;;;;;;;1.80;1.70;;;;;;;;;;5050373;28;20999;-53
2021/05/09 07:00:09;;;;;;;2.00;1.90;;;;;;;;;;5050310;28;20458;-52
2021/05/09 07:02:35;;;;;;;2.80;1.90;;;;;;;;;;5049872;28;20452;-53
2021/05/09 07:05:01;;;;;;;1.97;1.77;;;;;;;;;;5050076;28;20410;-52
2021/05/09 07:07:27;;;;;;;2.70;2.03;;;;;;;;;;5049979;28;20471;-52
2021/05/09 07:09:53;;;;;;;2.73;2.30;;;;;;;;;;5049609;28;20453;-52
2021/05/09 07:12:19;;;;;;;4.83;2.13;;;;;;;;;;5049759;28;20849;-52
2021/05/09 07:14:45;;;;;;;1.70;1.60;;;;;;;;;;5049984;28;20421;-52
2021/05/09 07:17:12;;;;;;;3.17;2.00;;;;;;;;;;5052153;28;20841;-52
2021/05/09 07:19:38;;;;;;;2.57;1.97;;;;;;;;;;5053428;28;20900;-54
2021/05/09 07:22:09;;;;;;;2.20;2.00;;;;;;;;;;5053311;28;20893;-52
2021/05/09 07:24:35;;;;;;;2.17;1.80;;;;;;;;;;5053326;28;20634;-53
2021/05/09 07:27:01;;;;;;;2.40;1.67;;;;;;;;;;5053317;28;20417;-52
2021/05/09 07:29:27;;;;;;;3.30;1.87;;;;;;;;;;5053093;28;20540;-52
2021/05/09 07:31:53;;;;;;;2.70;1.77;;;;;;;;;;5053213;28;20420;-52
2021/05/09 07:34:19;;;;;;;2.13;1.83;;;;;;;;;;5053035;28;20421;-53
2021/05/09 07:36:45;;;;;;;1.53;1.43;;;;;;;;;;5053175;28;20456;-53
2021/05/09 07:39:11;;;;;;;1.93;1.83;;;;;;;;;;5052932;28;20412;-52
2021/05/09 07:41:37;;;;;;;2.27;2.07;;;;;;;;;;5052933;28;20401;-52
2021/05/09 07:44:05;;;;;;;1.93;1.83;;;;;;;;;;5052945;28;20463;-53
2021/05/09 07:46:31;;;;;;;1.80;1.70;;;;;;;;;;5053083;28;20445;-54
2021/05/09 07:48:57;;;;;;;2.20;2.03;;;;;;;;;;5051445;28;20461;-54
2021/05/09 07:51:23;;;;;;;4.10;1.90;;;;;;;;;;5052708;28;20456;-53
2021/05/09 07:53:49;;;;;;;2.33;2.13;;;;;;;;;;5052616;28;20485;-53
2021/05/09 07:56:15;;;;;;;5.33;2.83;;;;;;;;;;5052676;28;20436;-53
2021/05/09 07:58:41;;;;;;;3.47;3.10;;;;;;;;;;5052782;28;20421;-53
2021/05/09 08:01:07;;;;;;;3.30;3.10;;;;;;;;;;5051143;28;20460;-53
2021/05/09 08:03:32;;;;;;;3.53;2.73;;;;;;;;;;5052474;28;20459;-53
2021/05/09 08:05:58;;;;;;;2.17;2.07;;;;;;;;;;5052479;28;20456;-53
2021/05/09 08:08:28;;;;;;;2.00;1.90;;;;;;;;;;5052582;28;20405;-53
2021/05/09 08:10:54;;;;;;;2.30;2.20;;;;;;;;;;5052241;28;20461;-53
2021/05/09 08:13:20;;;;;;;2.00;1.90;;;;;;;;;;5052338;28;20398;-54
2021/05/09 08:15:46;;;;;;;1.60;1.50;;;;;;;;;;5051290;28;20424;-53
2021/05/09 08:18:12;;;;;;;2.57;1.90;;;;;;;;;;5052303;28;20821;-53
2021/05/09 08:20:39;;;;;;;1.70;1.60;;;;;;;;;;5057038;28;20512;-55
2021/05/09 08:23:05;;;;;;;1.90;1.80;;;;;;;;;;5052195;28;20471;-54
2021/05/09 08:25:31;;;;;;;2.83;2.10;;;;;;;;;;5053452;28;20428;-54
2021/05/09 08:27:57;;;;;;;3.90;2.10;;;;;;;;;;5051432;28;20426;-54
2021/05/09 08:30:24;;;;;;;3.50;2.23;;;;;;;;;;5051896;28;20452;-54
2021/05/09 08:32:51;;;;;;;4.17;1.80;;;;;;;;;;5051846;28;20404;-55
2021/05/09 08:35:17;;;;;;;4.10;1.90;;;;;;;;;;5051950;28;20770;-56
2021/05/09 08:37:43;;;;;;;2.50;1.70;;;;;;;;;;5051922;28;20802;-54
2021/05/09 08:40:13;;;;;;;1.80;1.70;;;;;;;;;;5051817;28;20541;-54
2021/05/09 08:42:39;;;;;;;1.80;1.67;;;;;;;;;;5051827;28;20981;-53
2021/05/09 08:45:06;;;;;;;1.63;1.53;;;;;;;;;;5052002;28;20434;-53
2021/05/09 08:47:40;;;;;;;1.73;1.63;;;;;;;;;;5051658;28;20447;-54
2021/05/09 08:50:07;;;;;;;1.93;1.80;;;;;;;;;;5051694;28;20441;-54
2021/05/09 08:52:34;;;;;;;3.23;2.53;;;;;;;;;;5051625;28;20401;-55
2021/05/09 08:55:00;;;;;;;2.83;1.53;;;;;;;;;;5051966;28;20394;-54
2021/05/09 08:57:26;;;;;;;1.70;1.60;;;;;;;;;;5051607;28;20422;-53
2021/05/09 08:59:52;;;;;;;1.70;1.60;;;;;;;;;;5051821;28;20435;-53
2021/05/09 09:02:19;;;;;;;1.83;1.73;;;;;;;;;;5051539;28;20412;-54
2021/05/09 09:04:45;;;;;;;1.70;1.60;;;;;;;;;;5051636;28;20463;-56
2021/05/09 09:07:12;;;;;;;2.33;1.50;;;;;;;;;;5051756;28;20417;-54
2021/05/09 09:09:42;;;;;;;3.63;1.40;;;;;;;;;;5051656;28;20468;-54
2021/05/09 09:12:09;;;;;;;4.07;1.90;;;;;;;;;;5052173;28;20401;-53
2021/05/09 09:14:35;;;;;;;2.63;1.70;;;;;;;;;;5051862;28;20436;-54
2021/05/09 09:17:13;;;;;;;4.63;1.87;;;;;;;;;;5051428;28;20456;-53
2021/05/09 09:19:58;;;;;;;1.73;1.63;;;;;;;;;;5050145;28;20421;-53
2021/05/09 09:22:24;;;;;;;4.97;1.70;;;;;;;;;;5051112;28;20405;-54
2021/05/09 09:25:04;;;;;;;2.10;1.90;;;;;;;;;;5051270;28;20907;-54
2021/05/09 09:27:30;;;;;;;1.87;1.70;;;;;;;;;;5049723;28;20514;-53
2021/05/09 09:30:02;;;;;;;1.83;1.73;;;;;;;;;;5050674;28;21031;-53
2021/05/09 09:32:28;;;;;;;2.50;2.30;;;;;;;;;;5050933;28;20807;-53
2021/05/09 09:34:54;;;;;;;2.53;2.30;;;;;;;;;;5050981;28;20700;-53
2021/05/09 09:37:20;;;;;;;3.87;1.90;;;;;;;;;;5050757;28;20504;-53
2021/05/09 09:39:49;;;;;;;4.53;3.63;;;;;;;;;;5049954;28;20915;-55
2021/05/09 09:42:35;;;;;;;3.73;2.47;;;;;;;;;;5050461;28;20440;-54
2021/05/09 09:45:14;;;;;;;2.17;1.90;;;;;;;;;;5049540;28;20456;-53
2021/05/09 09:48:06;;;;;;;2.40;2.20;;;;;;;;;;5051170;28;20543;-55
2021/05/09 09:50:46;;;;;;;1.80;1.60;;;;;;;;;;5046380;28;20460;-55
2021/05/09 09:53:31;;;;;;;2.70;2.00;;;;;;;;;;5050518;28;20446;-55
2021/05/09 09:56:23;;;;;;;2.17;2.07;;;;;;;;;;5050630;28;20420;-54
2021/05/09 09:58:55;;;;;;;3.00;2.33;;;;;;;;;;5048423;28;20420;-55
2021/05/09 10:01:27;;;;;;;4.40;2.70;;;;;;;;;;5050334;28;20471;-55
2021/05/09 10:03:55;;;;;;;6.47;5.23;;;;;;;;;;5050509;28;20970;-55
2021/05/09 10:06:21;;;;;;;5.57;2.83;;;;;;;;;;5050479;28;20850;-56
2021/05/09 10:08:47;;;;;;;2.30;2.20;;;;;;;;;;5050416;28;20421;-56
2021/05/09 10:11:14;;;;;;;2.57;1.87;;;;;;;;;;5050079;28;20457;-56
2021/05/09 10:13:40;;;;;;;3.40;2.00;;;;;;;;;;5050523;28;20401;-56
2021/05/09 10:16:07;;;;;;;1.70;1.60;;;;;;;;;;5050512;28;20421;-56
2021/05/09 10:18:33;;;;;;;2.70;1.97;;;;;;;;;;5050504;28;20405;-55
2021/05/09 10:21:00;;;;;;;2.00;1.80;;;;;;;;;;5050498;28;20622;-56
2021/05/09 10:23:26;;;;;;;5.67;1.90;;;;;;;;;;5050088;28;20540;-55
2021/05/09 10:25:54;;;;;;;3.00;1.60;;;;;;;;;;5050061;28;20401;-55
2021/05/09 10:28:21;;;;;;;2.70;1.60;;;;;;;;;;5050316;28;20397;-55
2021/05/09 10:30:49;;;;;;;2.10;1.90;;;;;;;;;;5049975;28;20449;-55
2021/05/09 10:33:34;;;;;;;4.00;2.17;;;;;;;;;;5049984;28;20730;-55
2021/05/09 10:36:00;;;;;;;2.33;1.80;;;;;;;;;;5050127;28;20420;-55
2021/05/09 10:38:26;;;;;;;2.27;2.07;;;;;;;;;;5050110;28;20393;-55
2021/05/09 10:41:09;;;;;;;3.33;2.17;;;;;;;;;;5050059;28;20401;-55
2021/05/09 10:43:35;;;;;;;1.87;1.77;;;;;;;;;;5050035;28;20412;-55
2021/05/09 10:46:01;;;;;;;3.00;1.80;;;;;;;;;;5049810;28;20421;-55
2021/05/09 10:48:32;;;;;;;4.93;2.33;;;;;;;;;;5050228;28;20393;-55
2021/05/09 10:51:04;;;;;;;2.40;2.20;;;;;;;;;;5049919;28;20556;-55
2021/05/09 10:53:36;;;;;;;2.53;2.10;;;;;;;;;;5052924;28;20397;-55
2021/05/09 10:56:06;;;;;;;1.93;1.83;;;;;;;;;;5052667;28;20475;-54
2021/05/09 10:58:48;;;;;;;2.30;2.10;;;;;;;;;;5053874;28;20428;-55
2021/05/09 11:01:15;;;;;;;1.87;1.77;;;;;;;;;;5053609;28;20408;-55
2021/05/09 11:03:41;;;;;;;2.30;2.20;;;;;;;;;;5053932;28;20423;-55
2021/05/09 11:06:12;;;;;;;3.60;2.30;;;;;;;;;;5053743;28;20425;-56
2021/05/09 11:08:48;;;;;;;2.23;2.03;;;;;;;;;;5053656;28;20182;-56
2021/05/09 11:11:26;;;;;;;4.83;1.57;;;;;;;;;;5053470;28;20947;-55
2021/05/09 11:16:34;;;;;;;2.00;1.80;;;;;;;;;;5053753;28;20826;-55
2021/05/09 11:19:00;;;;;;;5.53;2.00;;;;;;;;;;5053792;28;20802;-55
2021/05/09 11:21:29;;;;;;;2.33;2.00;;;;;;;;;;5053466;28;20416;-55
2021/05/09 11:23:55;;;;;;;2.90;2.27;;;;;;;;;;5053734;28;20163;-55
2021/05/09 11:26:26;;;;;;;2.07;1.97;;;;;;;;;;5053347;28;20451;-55
2021/05/09 11:29:08;;;;;;;2.10;2.00;;;;;;;;;;5053479;28;20409;-55
2021/05/09 11:31:35;;;;;;;2.07;1.97;;;;;;;;;;5053006;28;20457;-55
2021/05/09 11:34:01;;;;;;;4.50;2.33;;;;;;;;;;5053287;28;20416;-56
2021/05/09 11:36:28;;;;;;;2.00;1.87;;;;;;;;;;5053021;28;20421;-55
2021/05/09 11:39:08;;;;;;;6.00;1.60;;;;;;;;;;5053031;28;20393;-55
2021/05/09 11:41:50;;;;;;;1.90;1.80;;;;;;;;;;5053002;28;20766;-55
2021/05/09 11:44:16;;;;;;;4.73;2.03;;;;;;;;;;5053158;28;20401;-55
2021/05/09 11:46:42;;;;;;;2.10;2.00;;;;;;;;;;5052818;28;20459;-55
2021/05/09 11:49:23;;;;;;;3.30;2.40;;;;;;;;;;5047727;28;20519;-55
2021/05/09 11:51:55;;;;;;;2.70;2.17;;;;;;;;;;5052632;28;20784;-54
2021/05/09 11:54:22;;;;;;;3.53;2.20;;;;;;;;;;5052844;28;20896;-54
2021/05/09 11:56:48;;;;;;;1.97;1.87;;;;;;;;;;5052583;28;20920;-54
2021/05/09 11:59:27;;;;;;;1.83;1.73;;;;;;;;;;5052903;28;20401;-54
2021/05/09 12:01:53;;;;;;;2.23;2.03;;;;;;;;;;5052451;28;20393;-55
2021/05/09 12:04:19;;;;;;;2.33;2.13;;;;;;;;;;5051547;28;20404;-55
2021/05/09 12:06:45;;;;;;;5.97;1.73;;;;;;;;;;5052504;28;20472;-55
2021/05/09 12:09:12;;;;;;;1.83;1.73;;;;;;;;;;5052396;28;20496;-55
2021/05/09 12:11:41;;;;;;;3.43;2.30;;;;;;;;;;5052205;28;20453;-55
2021/05/09 12:14:07;;;;;;;2.90;1.93;;;;;;;;;;5052109;28;20889;-55
2021/05/09 12:16:46;;;;;;;1.90;1.80;;;;;;;;;;5052316;28;20448;-55
2021/05/09 12:19:12;;;;;;;3.23;1.90;;;;;;;;;;5052208;28;20429;-56
2021/05/09 12:21:39;;;;;;;1.97;1.60;;;;;;;;;;5051861;28;20409;-55
2021/05/09 12:24:06;;;;;;;1.83;1.73;;;;;;;;;;5052127;28;20405;-55
2021/05/09 12:26:32;;;;;;;2.47;1.70;;;;;;;;;;5051993;28;20516;-56
2021/05/09 12:29:16;;;;;;;3.10;2.20;;;;;;;;;;5051937;28;20404;-55
2021/05/09 12:31:43;;;;;;;3.33;1.90;;;;;;;;;;5051959;28;20452;-55
2021/05/09 12:34:10;;;;;;;3.27;2.27;;;;;;;;;;5052070;28;20877;-55
2021/05/09 12:36:36;;;;;;;2.60;1.80;;;;;;;;;;5051850;28;20496;-55
2021/05/09 12:39:17;;;;;;;3.63;1.93;;;;;;;;;;5051808;28;20805;-55
2021/05/09 12:41:53;;;;;;;4.80;2.10;;;;;;;;;;5051429;28;20409;-55
2021/05/09 12:44:22;;;;;;;3.53;2.20;;;;;;;;;;5051837;28;20907;-55
2021/05/09 12:46:48;;;;;;;1.97;1.73;;;;;;;;;;5051442;28;20441;-55
2021/05/09 12:49:27;;;;;;;4.30;2.20;;;;;;;;;;5051556;28;20459;-55
2021/05/09 12:51:58;;;;;;;1.97;1.53;;;;;;;;;;5051253;28;20809;-56
2021/05/09 12:54:34;;;;;;;1.63;1.53;;;;;;;;;;5052079;28;20402;-56
2021/05/09 12:57:18;;;;;;;4.73;2.10;;;;;;;;;;5051384;28;20416;-55
2021/05/09 12:59:45;;;;;;;1.70;1.60;;;;;;;;;;5050162;28;20421;-55
2021/05/09 13:02:11;;;;;;;4.13;1.90;;;;;;;;;;5050916;28;20398;-56
2021/05/09 13:04:44;;;;;;;2.00;1.70;;;;;;;;;;5051582;28;20405;-56
2021/05/09 13:07:13;;;;;;;4.80;2.13;;;;;;;;;;5051381;28;20432;-56
2021/05/09 13:09:42;;;;;;;1.60;1.50;;;;;;;;;;5051214;28;20869;-55
2021/05/09 13:12:08;;;;;;;1.73;1.63;;;;;;;;;;5051082;28;20398;-56
2021/05/09 13:14:40;;;;;;;3.30;1.90;;;;;;;;;;5051057;28;20412;-54
2021/05/09 13:17:06;;;;;;;2.00;1.90;;;;;;;;;;5051088;28;20424;-55
2021/05/09 13:19:32;;;;;;;3.90;1.40;;;;;;;;;;5051248;28;20405;-56
2021/05/09 13:21:58;;;;;;;1.77;1.67;;;;;;;;;;5051053;28;20535;-56
2021/05/09 13:24:24;;;;;;;2.80;2.10;;;;;;;;;;5051208;28;20174;-55
2021/05/09 13:26:50;;;;;;;6.93;1.70;;;;;;;;;;5050941;28;20952;-54
2021/05/09 13:29:16;;;;;;;1.70;1.60;;;;;;;;;;5050759;28;20988;-55
2021/05/09 13:31:42;;;;;;;1.83;1.73;;;;;;;;;;5050606;28;20453;-54
2021/05/09 13:34:07;;;;;;;4.07;2.10;;;;;;;;;;5050693;28;20441;-56
2021/05/09 13:36:34;;;;;;;6.03;2.13;;;;;;;;;;5050724;28;20421;-55
2021/05/09 13:38:59;;;;;;;1.57;1.40;;;;;;;;;;5050721;28;20397;-56
2021/05/09 13:41:25;;;;;;;5.83;2.10;;;;;;;;;;5050561;28;20479;-55
2021/05/09 13:43:51;;;;;;;2.40;1.57;;;;;;;;;;5050673;28;20397;-56
2021/05/09 13:46:17;;;;;;;2.70;1.70;;;;;;;;;;5050775;28;20523;-56
2021/05/09 13:48:44;;;;;;;1.77;1.63;;;;;;;;;;5050658;28;20839;-56
2021/05/09 13:51:10;;;;;;;2.50;1.77;;;;;;;;;;5050636;28;20829;-55
2021/05/09 13:53:36;;;;;;;1.90;1.80;;;;;;;;;;5050415;28;20938;-56
2021/05/09 13:56:03;;;;;;;4.40;1.73;;;;;;;;;;5050554;28;20816;-55
2021/05/09 13:58:29;;;;;;;2.37;2.17;;;;;;;;;;5050493;28;20412;-56
2021/05/09 14:00:54;;;;;;;2.00;1.90;;;;;;;;;;5050502;28;20478;-55
2021/05/09 14:03:20;;;;;;;3.83;1.70;;;;;;;;;;5050455;28;20496;-56
2021/05/09 14:05:46;;;;;;;2.97;1.80;;;;;;;;;;5050347;28;20171;-55
2021/05/09 14:08:13;;;;;;;4.60;2.23;;;;;;;;;;5050668;28;20444;-55
2021/05/09 14:10:39;;;;;;;3.60;1.57;;;;;;;;;;5050356;28;20457;-55
2021/05/09 14:13:05;;;;;;;5.60;2.10;;;;;;;;;;5050200;28;20397;-56
2021/05/09 14:15:34;;;;;;;3.83;1.63;;;;;;;;;;5050394;28;20394;-55
2021/05/09 14:18:00;;;;;;;1.47;1.37;;;;;;;;;;5050388;28;20409;-56
2021/05/09 14:20:26;;;;;;;2.43;1.63;;;;;;;;;;5050224;28;20448;-55
2021/05/09 14:22:52;;;;;;;1.90;1.80;;;;;;;;;;5050240;28;20463;-55
2021/05/09 14:25:18;;;;;;;2.27;1.63;;;;;;;;;;5050193;28;20417;-55
2021/05/09 14:27:46;;;;;;;2.83;1.80;;;;;;;;;;5053558;28;20508;-55
2021/05/09 14:30:12;;;;;;;3.47;1.77;;;;;;;;;;5054248;28;20457;-55
2021/05/09 14:32:38;;;;;;;5.70;1.80;;;;;;;;;;5054043;28;20918;-55
2021/05/09 14:35:04;;;;;;;6.37;2.00;;;;;;;;;;5054285;28;20397;-56
2021/05/09 14:37:30;;;;;;;2.30;2.10;;;;;;;;;;5054101;28;20432;-55
2021/05/09 14:39:56;;;;;;;3.50;1.90;;;;;;;;;;5054028;28;20449;-54
2021/05/09 14:42:22;;;;;;;6.93;1.90;;;;;;;;;;5054003;28;20393;-55
2021/05/09 14:44:49;;;;;;;3.47;1.50;;;;;;;;;;5054232;28;20198;-55
2021/05/09 14:47:15;;;;;;;2.27;2.10;;;;;;;;;;5053910;28;20930;-56